Time;durP1;ratioP1;P1;durP2;ratioP2;P2;SDS_P1;SDS_P2;PMS_P1;PMS_P2;Temp;Humidity;BMP_temperature;BMP_pressure;BME280_temperature;BME280_humidity;BME280_pressure;Samples;Min_cycle;Max_cycle;Signal;HPM_P1;HPM_P2
2023/10/10 00:00:37;;;;;;;14.75;3.22;;;14.80;99.90;;;;;;5076790;28;20054;-77
2023/10/10 00:03:26;;;;;;;7.35;3.38;;;14.80;99.90;;;;;;5081228;28;20440;-77
2023/10/10 00:06:14;;;;;;;8.50;4.10;;;14.80;99.90;;;;;;5070744;28;20082;-76
2023/10/10 00:08:59;;;;;;;8.65;3.53;;;14.80;99.90;;;;;;5084279;28;20059;-77
2023/10/10 00:11:48;;;;;;;9.05;3.75;;;14.70;99.90;;;;;;5094178;28;20067;-77
2023/10/10 00:14:34;;;;;;;8.80;3.40;;;14.70;99.90;;;;;;5081516;28;20416;-77
2023/10/10 00:17:21;;;;;;;13.50;3.78;;;14.70;99.90;;;;;;5070420;28;20050;-77
2023/10/10 00:20:16;;;;;;;13.02;4.07;;;14.70;99.90;;;;;;5092182;28;20043;-77
2023/10/10 00:23:04;;;;;;;9.15;3.65;;;14.60;99.90;;;;;;5097316;28;20081;-77
2023/10/10 00:25:52;;;;;;;8.35;3.00;;;14.60;99.90;;;;;;5070247;28;20051;-77
2023/10/10 00:28:42;;;;;;;;;;;14.60;99.90;;;;;;5090634;28;20108;-77
2023/10/10 00:31:31;;;;;;;6.88;3.60;;;14.70;99.90;;;;;;5094661;28;19912;-77
2023/10/10 00:34:17;;;;;;;15.65;5.10;;;14.70;99.90;;;;;;5079917;28;20400;-77
2023/10/10 00:37:12;;;;;;;12.63;4.18;;;14.70;99.90;;;;;;5070348;28;20039;-77
2023/10/10 00:40:02;;;;;;;16.88;5.20;;;14.60;99.90;;;;;;5072639;28;20031;-77
2023/10/10 00:42:50;;;;;;;11.77;5.72;;;14.60;99.90;;;;;;5095705;28;20031;-77
2023/10/10 00:45:36;;;;;;;11.83;6.13;;;14.60;99.90;;;;;;5068437;28;20056;-77
2023/10/10 00:48:23;;;;;;;18.55;5.97;;;14.60;99.90;;;;;;5067247;28;20036;-77
2023/10/10 00:51:10;;;;;;;14.45;6.45;;;14.60;99.90;;;;;;5038392;28;20492;-77
2023/10/10 00:54:43;;;;;;;12.23;5.87;;;14.60;99.90;;;;;;5049310;28;20760;-77
2023/10/10 00:57:08;;;;;;;16.45;6.43;;;14.60;99.90;;;;;;5057716;28;20315;-77
2023/10/10 01:00:04;;;;;;;17.08;6.25;;;14.60;99.90;;;;;;5048689;28;20121;-75
2023/10/10 01:03:06;;;;;;;10.65;6.25;;;14.60;99.90;;;;;;5055804;28;20480;-75
2023/10/10 01:05:52;;;;;;;11.63;5.82;;;14.60;99.90;;;;;;5053675;28;20074;-75
2023/10/10 01:08:55;;;;;;;10.95;6.05;;;14.50;99.90;;;;;;5064062;28;20032;-75
2023/10/10 01:11:42;;;;;;;10.68;6.20;;;14.60;99.90;;;;;;5048425;28;20036;-74
2023/10/10 01:14:30;;;;;;;14.20;5.75;;;14.50;99.90;;;;;;5051874;28;20036;-74
2023/10/10 01:17:16;;;;;;;;;;;14.50;99.90;;;;;;5060480;28;20037;-75
2023/10/10 01:20:14;;;;;;;17.35;6.18;;;14.50;99.90;;;;;;5071283;28;20262;-75
2023/10/10 01:23:02;;;;;;;12.77;6.32;;;14.50;99.90;;;;;;5061027;28;20037;-75
2023/10/10 01:25:48;;;;;;;14.27;6.13;;;14.60;99.90;;;;;;5043943;28;20063;-75
2023/10/10 01:28:34;;;;;;;11.02;6.10;;;14.50;99.90;;;;;;5051832;28;20052;-75
2023/10/10 01:31:20;;;;;;;14.43;6.70;;;14.50;99.90;;;;;;5040780;28;20040;-75
2023/10/10 01:34:09;;;;;;;12.90;6.15;;;14.50;99.90;;;;;;5048254;28;20032;-75
2023/10/10 01:36:57;;;;;;;15.60;6.25;;;14.50;99.90;;;;;;5045552;28;20051;-75
2023/10/10 01:39:53;;;;;;;;;;;14.50;99.90;;;;;;5073063;28;20054;-75
2023/10/10 01:42:45;;;;;;;17.02;6.40;;;14.60;99.90;;;;;;5070170;28;19912;-75
2023/10/10 01:45:31;;;;;;;9.73;5.60;;;14.50;99.90;;;;;;5075776;28;20048;-75
2023/10/10 01:48:18;;;;;;;11.82;5.65;;;14.60;99.90;;;;;;5086663;28;20506;-75
2023/10/10 01:51:08;;;;;;;8.95;4.75;;;14.60;99.90;;;;;;5050042;28;20079;-75
2023/10/10 01:53:55;;;;;;;14.05;5.63;;;14.60;99.90;;;;;;5057575;28;20193;-75
2023/10/10 01:56:42;;;;;;;13.63;6.45;;;14.60;99.90;;;;;;5089099;28;20392;-75
2023/10/10 01:59:35;;;;;;;12.90;5.90;;;14.50;99.90;;;;;;5066425;28;20477;-75
2023/10/10 02:02:24;;;;;;;13.10;6.05;;;14.50;99.90;;;;;;5055985;28;20128;-75
2023/10/10 02:05:11;;;;;;;13.07;6.00;;;14.50;99.90;;;;;;5074585;28;20056;-75
2023/10/10 02:07:57;;;;;;;17.67;6.07;;;14.50;99.90;;;;;;5052277;28;20356;-75
2023/10/10 02:10:47;;;;;;;18.60;6.30;;;14.50;99.90;;;;;;5048320;28;20044;-75
2023/10/10 02:13:33;;;;;;;9.77;5.53;;;14.50;99.90;;;;;;5056544;28;20054;-75
2023/10/10 02:16:23;;;;;;;10.93;5.55;;;14.50;99.90;;;;;;5043938;28;20384;-76
2023/10/10 02:19:25;;;;;;;10.93;5.60;;;14.60;99.90;;;;;;5064124;28;20040;-77
2023/10/10 02:23:08;;;;;;;14.20;5.80;;;14.50;99.90;;;;;;5069118;28;20044;-77
2023/10/10 02:31:04;;;;;;;11.93;5.20;;;14.40;99.90;;;;;;5078170;28;20048;-77
2023/10/10 02:33:54;;;;;;;13.13;5.00;;;14.50;99.90;;;;;;5065340;28;20785;-77
2023/10/10 02:36:42;;;;;;;11.48;4.80;;;14.50;99.90;;;;;;5089991;28;20040;-77
2023/10/10 02:39:29;;;;;;;15.37;5.60;;;14.50;99.90;;;;;;5046896;28;20487;-76
2023/10/10 02:42:19;;;;;;;11.63;5.15;;;14.50;99.90;;;;;;5047286;28;20067;-77
2023/10/10 02:45:06;;;;;;;13.35;5.40;;;14.50;99.90;;;;;;5047935;28;20055;-76
2023/10/10 02:47:53;;;;;;;15.27;5.15;;;14.50;99.90;;;;;;5081594;28;20036;-77
2023/10/10 02:50:40;;;;;;;9.80;5.05;;;14.40;99.90;;;;;;5069599;28;20043;-77
2023/10/10 02:53:32;;;;;;;11.32;4.50;;;14.50;99.90;;;;;;5094896;28;20040;-77
2023/10/10 02:56:18;;;;;;;10.82;4.75;;;14.50;99.90;;;;;;5092071;28;20036;-77
2023/10/10 02:59:05;;;;;;;12.27;4.65;;;14.50;99.90;;;;;;5076514;28;20074;-77
2023/10/10 03:01:57;;;;;;;10.77;5.00;;;14.40;99.90;;;;;;5082835;28;20078;-77
2023/10/10 03:07:42;;;;;;;10.00;4.65;;;14.50;99.90;;;;;;5084120;28;20071;-77
2023/10/10 03:10:41;;;;;;;13.65;5.50;;;14.40;99.90;;;;;;5087243;28;20048;-77
2023/10/10 03:13:32;;;;;;;13.77;5.22;;;14.50;99.90;;;;;;5080801;28;20039;-76
2023/10/10 03:25:03;;;;;;;13.32;4.82;;;14.50;99.90;;;;;;5108869;28;20043;-75
2023/10/10 03:28:05;;;;;;;10.98;5.40;;;14.50;99.90;;;;;;5088169;28;20130;-74
2023/10/10 03:31:24;;;;;;;8.60;4.97;;;14.50;99.90;;;;;;5091313;28;20558;-75
2023/10/10 03:34:19;;;;;;;12.93;5.30;;;14.50;99.90;;;;;;5097577;28;20089;-75
2023/10/10 03:37:27;;;;;;;11.68;5.32;;;14.50;99.90;;;;;;5089132;28;20071;-75
2023/10/10 05:24:51;;;;;;;11.18;4.97;;;14.60;99.90;;;;;;5089303;28;20344;-77
2023/10/10 05:27:41;;;;;;;11.52;5.32;;;14.50;99.90;;;;;;5079294;28;20717;-77
2023/10/10 05:30:27;;;;;;;9.20;5.28;;;14.50;99.90;;;;;;5103678;28;20035;-77
2023/10/10 05:33:13;;;;;;;13.55;5.55;;;14.50;99.90;;;;;;5079039;28;20055;-77
2023/10/10 05:35:59;;;;;;;12.30;5.30;;;14.50;99.90;;;;;;5070913;28;20127;-77
2023/10/10 05:38:48;;;;;;;9.25;4.68;;;14.50;99.90;;;;;;5069348;28;20048;-77
2023/10/10 05:41:38;;;;;;;;;;;14.50;99.90;;;;;;5069549;28;20040;-77
2023/10/10 05:44:24;;;;;;;11.30;5.07;;;14.50;99.90;;;;;;5074630;28;20233;-76
2023/10/10 05:47:10;;;;;;;14.65;5.75;;;14.50;99.90;;;;;;5096358;28;20372;-76
2023/10/10 05:49:57;;;;;;;13.25;5.20;;;14.50;99.90;;;;;;5084673;28;20149;-76
2023/10/10 05:52:46;;;;;;;9.63;4.78;;;14.50;99.90;;;;;;5097889;28;20067;-76
2023/10/10 05:55:35;;;;;;;12.95;4.75;;;14.50;99.90;;;;;;5083475;28;20584;-76
2023/10/10 05:58:21;;;;;;;13.05;5.60;;;14.50;99.90;;;;;;5060629;28;20154;-76
2023/10/10 06:01:09;;;;;;;13.38;5.13;;;14.50;99.90;;;;;;5069008;28;20055;-76
2023/10/10 06:03:56;;;;;;;;;;;14.60;99.90;;;;;;5086146;28;20120;-77
2023/10/10 06:06:43;;;;;;;14.00;5.15;;;14.50;99.90;;;;;;5094869;28;19937;-76
2023/10/10 06:09:33;;;;;;;13.13;5.25;;;14.60;99.90;;;;;;5064307;28;20096;-75
2023/10/10 06:12:21;;;;;;;8.95;4.90;;;14.50;99.90;;;;;;5098064;28;20317;-76
2023/10/10 06:15:07;;;;;;;11.93;5.15;;;14.60;99.90;;;;;;5112222;28;20043;-77
2023/10/10 06:17:57;;;;;;;9.27;4.82;;;14.60;99.90;;;;;;5064464;28;20086;-77
2023/10/10 06:20:44;;;;;;;11.25;4.72;;;14.60;99.90;;;;;;5094926;28;20521;-76
2023/10/10 06:23:32;;;;;;;7.18;4.85;;;14.60;99.90;;;;;;5072664;28;20036;-77
2023/10/10 06:26:21;;;;;;;19.75;5.28;;;14.60;99.90;;;;;;5083232;28;20035;-77
2023/10/10 06:29:08;;;;;;;10.05;4.88;;;14.60;99.90;;;;;;5075491;28;20039;-76
2023/10/10 06:31:54;;;;;;;7.82;4.80;;;14.60;99.90;;;;;;5077335;28;20079;-77
2023/10/10 06:34:40;;;;;;;12.90;6.38;;;14.60;99.90;;;;;;5060768;28;20039;-77
2023/10/10 06:37:27;;;;;;;8.73;4.93;;;14.60;99.90;;;;;;5094839;28;20051;-77
2023/10/10 06:40:14;;;;;;;10.53;5.00;;;14.60;99.90;;;;;;5087308;28;20070;-77
2023/10/10 06:43:07;;;;;;;10.20;5.05;;;14.60;99.90;;;;;;5063950;28;20067;-77
2023/10/10 06:45:56;;;;;;;12.55;5.13;;;14.60;99.90;;;;;;5083941;28;20047;-77
2023/10/10 06:48:42;;;;;;;7.63;4.65;;;14.60;99.90;;;;;;5073455;28;20032;-77
2023/10/10 06:51:28;;;;;;;7.50;4.35;;;14.60;99.90;;;;;;5085245;28;20113;-77
2023/10/10 06:54:27;;;;;;;8.93;4.70;;;14.60;99.90;;;;;;5069816;28;20126;-77
2023/10/10 06:57:19;;;;;;;9.82;4.53;;;14.60;99.90;;;;;;5065006;28;20070;-76
2023/10/10 07:00:27;;;;;;;9.23;4.68;;;14.70;99.90;;;;;;5086589;28;20061;-77
2023/10/10 07:03:18;;;;;;;;;;;14.70;99.90;;;;;;5098154;28;20073;-77
2023/10/10 07:06:04;;;;;;;7.70;4.72;;;14.70;99.90;;;;;;5085840;28;19922;-77
2023/10/10 07:09:14;;;;;;;8.23;4.72;;;14.70;99.90;;;;;;5094925;28;20494;-76
2023/10/10 07:11:57;;;;;;;14.35;4.80;;;14.70;99.90;;;;;;5098371;28;20044;-76
2023/10/10 07:14:44;;;;;;;12.98;5.53;;;14.70;99.90;;;;;;5090475;28;20051;-77
2023/10/10 07:17:30;;;;;;;9.23;5.20;;;14.80;99.90;;;;;;5066277;28;20093;-76
2023/10/10 07:23:02;;;;;;;13.88;5.20;;;14.80;99.90;;;;;;5084990;28;20038;-77
2023/10/10 07:26:01;;;;;;;14.85;5.75;;;14.80;99.90;;;;;;5079820;28;20625;-76
2023/10/10 07:28:52;;;;;;;8.27;4.50;;;14.80;99.90;;;;;;5074667;28;20039;-76
2023/10/10 07:31:40;;;;;;;8.23;4.90;;;14.80;99.90;;;;;;5084221;28;20046;-76
2023/10/10 07:34:35;;;;;;;8.93;3.90;;;14.80;99.90;;;;;;5080524;28;20044;-76
2023/10/10 07:37:24;;;;;;;7.47;3.90;;;14.80;99.90;;;;;;5083770;28;20036;-76
2023/10/10 07:43:07;;;;;;;9.18;3.65;;;14.90;99.90;;;;;;5092048;28;20089;-76
2023/10/10 07:45:55;;;;;;;6.90;3.20;;;15.00;99.90;;;;;;5087918;28;20134;-77
2023/10/10 07:48:46;;;;;;;6.60;3.30;;;15.00;99.90;;;;;;5094766;28;20039;-77
2023/10/10 07:51:34;;;;;;;13.40;4.60;;;15.00;99.90;;;;;;5061871;28;20050;-77
2023/10/10 07:54:29;;;;;;;11.27;4.30;;;15.10;99.90;;;;;;5081951;28;20088;-77
2023/10/10 07:57:22;;;;;;;5.18;3.70;;;15.10;99.90;;;;;;5082259;28;20043;-77
2023/10/10 08:00:17;;;;;;;7.50;3.83;;;15.10;99.90;;;;;;5068995;28;20071;-77
2023/10/10 08:03:04;;;;;;;13.25;4.32;;;15.20;99.90;;;;;;5106598;28;20509;-77
2023/10/10 08:05:54;;;;;;;8.23;4.03;;;15.20;99.90;;;;;;5067788;28;20036;-77
2023/10/10 08:08:40;;;;;;;9.73;4.40;;;15.20;99.90;;;;;;5092356;28;20392;-77
2023/10/10 08:11:35;;;;;;;5.95;3.83;;;15.20;99.90;;;;;;5073431;28;20039;-77
2023/10/10 08:14:30;;;;;;;9.23;4.85;;;15.30;99.90;;;;;;5091914;28;20498;-77
2023/10/10 08:17:18;;;;;;;10.07;5.50;;;15.30;99.90;;;;;;5061029;28;20071;-74
2023/10/10 08:20:31;;;;;;;7.93;4.47;;;15.30;99.90;;;;;;5094792;28;20379;-74
2023/10/10 08:23:12;;;;;;;7.25;4.95;;;15.40;99.90;;;;;;5074771;28;20495;-74
2023/10/10 08:25:58;;;;;;;5.82;4.25;;;15.40;99.90;;;;;;5082771;28;20036;-74
2023/10/10 08:28:48;;;;;;;10.43;5.20;;;15.50;99.90;;;;;;5074111;28;20800;-74
2023/10/10 08:31:42;;;;;;;11.88;5.32;;;15.50;99.90;;;;;;5062056;28;20100;-74
2023/10/10 08:34:28;;;;;;;8.68;5.13;;;15.50;99.90;;;;;;5079572;28;20063;-75
2023/10/10 08:37:15;;;;;;;13.07;5.60;;;15.50;99.90;;;;;;5081773;28;20038;-75
2023/10/10 08:40:15;;;;;;;9.85;6.03;;;15.60;99.90;;;;;;5091755;28;20186;-75
2023/10/10 08:43:07;;;;;;;9.73;5.68;;;15.60;99.90;;;;;;5065692;28;20444;-75
2023/10/10 08:45:54;;;;;;;12.82;6.65;;;15.60;99.90;;;;;;5050169;28;20472;-74
2023/10/10 08:48:40;;;;;;;10.88;6.75;;;15.60;99.90;;;;;;5055335;28;20051;-75
2023/10/10 08:51:32;;;;;;;12.50;6.65;;;15.70;99.90;;;;;;5055682;28;20500;-75
2023/10/10 08:54:18;;;;;;;10.27;6.15;;;15.70;99.90;;;;;;5042624;28;20048;-75
2023/10/10 08:57:10;;;;;;;11.15;7.30;;;15.70;99.90;;;;;;5057809;28;20162;-75
2023/10/10 08:59:56;;;;;;;12.88;7.15;;;15.80;99.90;;;;;;5052310;28;20355;-75
2023/10/10 09:02:42;;;;;;;9.82;7.18;;;15.80;99.90;;;;;;5048942;28;20454;-75
2023/10/10 09:05:28;;;;;;;13.13;7.00;;;15.80;99.90;;;;;;5051340;28;20052;-75
2023/10/10 09:08:16;;;;;;;9.60;6.38;;;15.90;99.90;;;;;;5072584;28;20059;-75
2023/10/10 09:11:02;;;;;;;12.52;6.43;;;15.90;99.90;;;;;;5050241;28;20445;-75
2023/10/10 09:13:51;;;;;;;12.70;6.80;;;16.00;99.90;;;;;;5068786;28;20029;-75
2023/10/10 09:16:41;;;;;;;11.82;6.82;;;16.10;99.90;;;;;;5071061;28;20064;-75
2023/10/10 09:19:27;;;;;;;10.75;6.78;;;16.10;99.90;;;;;;5053447;28;20113;-74
2023/10/10 09:22:25;;;;;;;17.20;6.88;;;16.10;99.90;;;;;;5065736;28;20048;-75
2023/10/10 09:25:44;;;;;;;10.57;6.70;;;16.10;99.90;;;;;;5044594;28;20474;-75
2023/10/10 09:28:43;;;;;;;13.48;6.80;;;16.10;99.90;;;;;;5058204;28;20410;-75
2023/10/10 09:31:32;;;;;;;13.80;7.15;;;16.10;99.90;;;;;;5070669;28;20040;-74
2023/10/10 09:34:22;;;;;;;13.68;7.30;;;16.20;99.90;;;;;;5048535;28;20047;-74
2023/10/10 09:37:11;;;;;;;11.50;6.70;;;16.20;99.90;;;;;;5058839;28;20068;-75
2023/10/10 09:39:59;;;;;;;;;;;16.30;99.90;;;;;;5046772;28;20040;-75
2023/10/10 09:45:56;;;;;;;17.75;7.68;;;16.30;99.90;;;;;;5067050;28;20048;-74
2023/10/10 09:54:47;;;;;;;12.93;7.80;;;16.30;99.90;;;;;;5070775;28;20115;-74
2023/10/10 09:57:42;;;;;;;11.05;8.00;;;16.40;99.90;;;;;;5082902;28;20070;-74
2023/10/10 10:00:47;;;;;;;13.52;7.78;;;16.50;99.90;;;;;;5068783;28;20432;-74
2023/10/10 10:03:41;;;;;;;10.93;7.70;;;16.50;99.90;;;;;;5068182;28;20049;-74
2023/10/10 10:06:41;;;;;;;12.00;7.57;;;16.50;99.90;;;;;;5077200;28;20036;-74
2023/10/10 10:09:38;;;;;;;13.50;7.88;;;16.60;99.90;;;;;;5089271;28;20036;-74
2023/10/10 10:12:30;;;;;;;12.90;7.82;;;16.70;99.90;;;;;;5068298;28;20368;-75
2023/10/10 10:15:48;;;;;;;12.82;7.63;;;16.70;99.90;;;;;;5077532;28;20036;-75
2023/10/10 10:18:44;;;;;;;13.02;7.88;;;16.70;99.90;;;;;;5088348;28;20376;-75
2023/10/10 10:21:31;;;;;;;13.02;7.57;;;16.70;99.90;;;;;;5078457;28;20047;-74
2023/10/10 10:24:17;;;;;;;14.50;7.47;;;16.80;99.90;;;;;;5068396;28;20040;-74
2023/10/10 10:33:09;;;;;;;11.63;5.70;;;16.80;99.90;;;;;;5070577;28;20370;-74
2023/10/10 10:36:06;;;;;;;10.40;5.53;;;16.90;99.90;;;;;;5086983;28;20507;-74
2023/10/10 10:42:00;;;;;;;10.63;5.28;;;17.10;99.90;;;;;;5087829;28;20506;-76
2023/10/10 10:44:54;;;;;;;10.32;5.22;;;17.30;99.90;;;;;;5053509;28;20047;-76
2023/10/10 10:47:47;;;;;;;16.20;5.22;;;17.40;99.90;;;;;;5084934;28;20531;-75
2023/10/10 10:50:40;;;;;;;11.63;4.93;;;17.40;99.90;;;;;;5097552;28;20421;-75
2023/10/10 10:53:41;;;;;;;10.65;5.10;;;17.70;99.90;;;;;;5083470;28;20047;-75
2023/10/10 10:59:19;;;;;;;11.73;5.15;;;17.80;99.90;;;;;;5081124;28;20036;-76
2023/10/10 11:02:15;;;;;;;11.00;4.65;;;17.90;99.90;;;;;;5077817;28;20032;-75
2023/10/10 11:05:07;;;;;;;8.80;4.40;;;17.90;99.90;;;;;;5086799;28;20122;-74
2023/10/10 11:08:06;;;;;;;15.40;5.80;;;18.00;99.90;;;;;;5086549;28;20522;-74
2023/10/10 11:10:53;;;;;;;12.25;5.55;;;17.90;99.90;;;;;;5076803;28;20039;-75
2023/10/10 11:13:39;;;;;;;13.60;4.88;;;17.90;99.90;;;;;;5065439;28;20068;-75
2023/10/10 11:16:28;;;;;;;10.40;5.32;;;17.80;99.90;;;;;;5089977;28;20404;-74
2023/10/10 11:19:38;;;;;;;15.88;5.95;;;17.80;99.90;;;;;;5080152;28;20044;-75
2023/10/10 11:22:38;;;;;;;14.32;6.18;;;17.70;99.90;;;;;;5082328;28;20078;-74
2023/10/10 11:25:44;;;;;;;10.73;5.75;;;17.80;99.90;;;;;;5085913;28;20027;-77
2023/10/10 11:28:37;;;;;;;11.90;5.05;;;;;;;;;;5090924;28;20043;-77
2023/10/10 11:31:23;;;;;;;12.77;6.13;;;18.00;99.90;;;;;;5093492;28;20356;-78
2023/10/10 11:34:10;;;;;;;11.80;6.00;;;18.30;99.90;;;;;;5064652;28;20046;-78
2023/10/10 11:37:23;;;;;;;10.52;5.85;;;18.90;99.90;;;;;;5082981;28;20325;-78
2023/10/10 11:43:17;;;;;;;8.32;4.47;;;19.60;99.90;;;;;;5093561;28;20044;-77
2023/10/10 11:46:03;;;;;;;11.57;4.60;;;19.70;99.90;;;;;;5086465;28;20075;-77
2023/10/10 11:48:50;;;;;;;8.60;4.25;;;19.80;99.90;;;;;;5072625;28;20051;-77
2023/10/10 11:51:37;;;;;;;10.77;5.07;;;19.90;99.90;;;;;;5073821;28;20035;-78
2023/10/10 11:54:25;;;;;;;7.82;4.50;;;20.10;99.90;;;;;;5093759;28;20047;-78
2023/10/10 11:57:15;;;;;;;9.60;4.10;;;20.30;99.90;;;;;;5092413;28;20473;-78
2023/10/10 12:00:07;;;;;;;8.98;4.28;;;20.30;99.90;;;;;;5081087;28;20055;-77
2023/10/10 12:02:55;;;;;;;8.70;4.75;;;20.20;99.90;;;;;;5068580;28;20256;-77
2023/10/10 12:05:50;;;;;;;10.98;5.43;;;20.00;99.90;;;;;;5055388;28;20036;-77
2023/10/10 12:08:37;;;;;;;9.77;5.75;;;19.90;99.90;;;;;;5082071;28;20039;-77
2023/10/10 12:11:25;;;;;;;11.55;5.60;;;19.80;99.90;;;;;;5059848;28;20062;-78
2023/10/10 12:14:18;;;;;;;9.65;6.00;;;19.70;99.90;;;;;;5095829;28;20463;-78
2023/10/10 12:17:07;;;;;;;10.15;6.45;;;19.70;99.90;;;;;;5056395;28;20039;-78
2023/10/10 12:19:53;;;;;;;10.02;6.95;;;19.70;99.90;;;;;;5068803;28;20360;-77
2023/10/10 12:22:39;;;;;;;12.43;7.03;;;19.60;99.90;;;;;;5083370;28;20035;-78
2023/10/10 12:25:26;;;;;;;9.10;7.03;;;19.60;99.90;;;;;;5075247;28;20069;-78
2023/10/10 12:28:17;;;;;;;12.57;7.13;;;19.40;99.90;;;;;;5079619;28;20039;-77
2023/10/10 12:31:15;;;;;;;11.82;7.47;;;19.40;99.90;;;;;;5082363;28;20043;-78
2023/10/10 12:34:01;;;;;;;11.48;8.32;;;19.40;99.90;;;;;;5105025;28;20447;-76
2023/10/10 12:36:49;;;;;;;12.27;8.27;;;19.30;99.90;;;;;;5088003;28;20070;-75
2023/10/10 12:39:37;;;;;;;13.95;8.30;;;19.20;99.90;;;;;;5063637;28;20036;-74
2023/10/10 12:42:23;;;;;;;14.30;8.43;;;19.10;99.90;;;;;;5072709;28;20043;-75
2023/10/10 12:45:14;;;;;;;12.30;7.93;;;19.00;99.90;;;;;;5083151;28;20363;-75
2023/10/10 12:48:02;;;;;;;13.55;9.93;;;19.00;99.90;;;;;;5104099;28;20400;-77
2023/10/10 12:50:51;;;;;;;16.85;10.07;;;18.80;99.90;;;;;;5072779;28;20043;-74
2023/10/10 12:53:40;;;;;;;14.23;9.13;;;18.80;99.90;;;;;;5069468;28;20049;-76
2023/10/10 12:56:26;;;;;;;15.68;9.68;;;18.80;99.90;;;;;;5067683;28;20447;-76
2023/10/10 12:59:15;;;;;;;16.55;9.95;;;18.80;99.90;;;;;;5082594;28;20145;-76
2023/10/10 13:02:08;;;;;;;16.13;11.48;;;18.80;99.90;;;;;;5085017;28;20487;-75
2023/10/10 13:04:56;;;;;;;13.02;10.13;;;18.70;99.90;;;;;;5082877;28;20047;-76
2023/10/10 13:07:43;;;;;;;16.52;10.20;;;18.70;99.90;;;;;;5062202;28;20068;-75
2023/10/10 13:10:32;;;;;;;16.42;11.13;;;18.70;99.90;;;;;;5074828;28;20047;-74
2023/10/10 13:13:26;;;;;;;19.33;11.40;;;18.70;99.90;;;;;;5089725;28;20039;-74
2023/10/10 13:19:20;;;;;;;17.80;10.30;;;18.60;99.90;;;;;;5085600;28;20090;-77
2023/10/10 13:22:07;;;;;;;16.25;10.52;;;18.60;99.90;;;;;;5072384;28;20035;-77
2023/10/10 13:24:53;;;;;;;16.83;11.20;;;18.60;99.90;;;;;;5082657;28;20075;-78
2023/10/10 13:27:39;;;;;;;15.20;10.65;;;18.60;99.90;;;;;;5092238;28;20040;-77
2023/10/10 13:30:24;;;;;;;13.77;10.95;;;18.50;99.90;;;;;;5084348;28;20036;-78
2023/10/10 13:33:10;;;;;;;19.90;11.55;;;18.60;99.90;;;;;;5065902;28;20036;-78
2023/10/10 13:35:56;;;;;;;18.25;10.98;;;18.50;99.90;;;;;;5060620;28;20039;-77
2023/10/10 13:38:47;;;;;;;15.02;10.70;;;18.60;99.90;;;;;;5067241;28;20063;-78
2023/10/10 13:41:36;;;;;;;15.32;10.90;;;18.70;99.90;;;;;;5084173;28;20044;-78
2023/10/10 13:44:22;;;;;;;14.35;11.50;;;18.70;99.90;;;;;;5092558;28;20063;-78
2023/10/10 13:47:08;;;;;;;17.10;11.20;;;19.00;99.90;;;;;;5065858;28;20097;-77
2023/10/10 13:50:28;;;;;;;18.50;11.25;;;19.10;99.90;;;;;;5091114;28;20142;-78
2023/10/10 13:53:04;;;;;;;16.35;11.07;;;19.30;99.90;;;;;;5087408;28;20423;-78
2023/10/10 13:55:51;;;;;;;18.88;11.75;;;19.30;99.90;;;;;;5102549;28;20040;-78
2023/10/10 13:58:40;;;;;;;16.83;11.07;;;19.30;99.90;;;;;;5079722;28;20153;-77
2023/10/10 14:04:27;;;;;;;17.50;10.85;;;19.30;99.90;;;;;;5083233;28;20119;-77
2023/10/10 14:07:14;;;;;;;16.88;10.38;;;19.30;99.90;;;;;;5070375;28;20371;-77
2023/10/10 14:10:05;;;;;;;13.02;10.35;;;19.40;99.90;;;;;;5074252;28;20066;-77
2023/10/10 14:12:51;;;;;;;14.80;9.63;;;19.40;99.90;;;;;;5068942;28;20559;-77
2023/10/10 14:15:37;;;;;;;14.93;10.60;;;19.60;99.90;;;;;;5095022;28;20049;-77
2023/10/10 14:18:26;;;;;;;14.30;9.32;;;19.60;99.90;;;;;;5085600;28;20050;-76
2023/10/10 14:21:13;;;;;;;13.32;8.50;;;19.60;99.90;;;;;;5097313;28;20044;-77
2023/10/10 14:24:04;;;;;;;12.32;7.57;;;19.60;99.90;;;;;;5097688;28;20039;-77
2023/10/10 14:26:51;;;;;;;12.13;7.70;;;19.50;99.90;;;;;;5061852;28;20028;-77
2023/10/10 14:29:43;;;;;;;9.77;7.05;;;19.50;99.90;;;;;;5083677;28;20039;-76
2023/10/10 14:32:29;;;;;;;10.30;7.00;;;19.50;99.90;;;;;;5078693;28;20226;-77
2023/10/10 14:35:15;;;;;;;10.45;7.55;;;19.50;99.90;;;;;;5073228;28;20095;-77
2023/10/10 14:38:02;;;;;;;11.18;7.25;;;19.50;99.90;;;;;;5082907;28;20065;-77
2023/10/10 14:40:48;;;;;;;12.50;8.00;;;19.50;99.90;;;;;;5057154;28;20517;-77
2023/10/10 14:43:39;;;;;;;13.25;8.18;;;19.50;99.90;;;;;;5094824;28;20507;-77
2023/10/10 14:46:31;;;;;;;11.30;7.30;;;19.50;99.90;;;;;;5111368;28;20055;-77
2023/10/10 14:49:19;;;;;;;16.42;6.78;;;19.60;99.90;;;;;;5073819;28;20070;-78
2023/10/10 14:52:06;;;;;;;20.10;6.63;;;19.60;99.90;;;;;;5087452;28;20519;-77
2023/10/10 14:54:52;;;;;;;9.82;6.13;;;19.60;99.90;;;;;;5099006;28;20150;-76
2023/10/10 14:57:41;;;;;;;12.15;5.95;;;19.70;99.90;;;;;;5094423;28;20131;-77
2023/10/10 15:00:30;;;;;;;9.65;6.65;;;19.70;99.90;;;;;;5062520;28;20078;-77
2023/10/10 15:03:16;;;;;;;13.88;6.70;;;19.70;99.90;;;;;;5073512;28;20031;-78
2023/10/10 15:06:06;;;;;;;10.23;5.85;;;19.70;99.90;;;;;;5079344;28;20048;-77
2023/10/10 15:08:55;;;;;;;11.52;5.50;;;19.70;99.90;;;;;;5069929;28;20081;-77
2023/10/10 15:11:42;;;;;;;11.48;5.85;;;19.60;99.90;;;;;;5095195;28;20508;-79
2023/10/10 15:14:31;;;;;;;12.27;5.85;;;19.60;99.90;;;;;;5065827;28;20344;-78
2023/10/10 15:17:17;;;;;;;10.55;5.60;;;19.70;99.90;;;;;;5093398;28;20039;-77
2023/10/10 15:20:11;;;;;;;8.55;5.15;;;19.70;99.90;;;;;;5085859;28;20043;-77
2023/10/10 15:22:57;;;;;;;12.30;5.55;;;19.70;99.90;;;;;;5085969;28;20114;-78
2023/10/10 15:25:44;;;;;;;10.40;5.10;;;19.70;99.90;;;;;;5068756;28;20180;-77
2023/10/10 15:28:30;;;;;;;12.73;5.18;;;19.70;99.90;;;;;;5080993;28;20368;-77
2023/10/10 15:31:16;;;;;;;8.27;5.00;;;19.70;99.90;;;;;;5093853;28;20360;-78
2023/10/10 15:34:03;;;;;;;10.02;4.88;;;19.80;99.90;;;;;;5074940;28;20039;-78
2023/10/10 15:36:49;;;;;;;11.30;5.68;;;19.70;99.90;;;;;;5084795;28;20082;-77
2023/10/10 15:39:38;;;;;;;17.52;5.10;;;19.70;99.90;;;;;;5080892;28;20116;-77
2023/10/10 15:42:24;;;;;;;14.10;5.28;;;19.70;99.90;;;;;;5080959;28;20050;-77
2023/10/10 15:45:10;;;;;;;10.93;4.95;;;19.60;99.90;;;;;;5084203;28;20040;-77
2023/10/10 15:47:56;;;;;;;11.82;5.25;;;19.60;99.90;;;;;;5093561;28;20373;-78
2023/10/10 15:50:46;;;;;;;11.15;4.82;;;19.50;99.90;;;;;;5070875;28;20371;-78
2023/10/10 15:53:32;;;;;;;13.50;6.25;;;19.40;99.90;;;;;;5061119;28;20040;-77
2023/10/10 15:56:20;;;;;;;13.00;5.05;;;19.40;99.90;;;;;;5075964;28;20269;-77
2023/10/10 15:59:06;;;;;;;12.18;5.45;;;19.40;99.90;;;;;;5079737;28;20040;-77
2023/10/10 16:01:52;;;;;;;9.82;5.28;;;19.40;99.90;;;;;;5083189;28;20465;-78
2023/10/10 16:04:42;;;;;;;14.30;6.10;;;19.30;99.90;;;;;;5093162;28;20093;-77
2023/10/10 16:07:29;;;;;;;13.32;5.63;;;19.30;99.90;;;;;;5095428;28;20512;-79
2023/10/10 16:10:17;;;;;;;12.52;6.05;;;19.20;99.90;;;;;;5086772;28;20413;-76
2023/10/10 16:13:03;;;;;;;11.73;5.47;;;19.20;99.90;;;;;;5066791;28;20039;-77
2023/10/10 16:15:49;;;;;;;8.98;5.38;;;19.20;99.90;;;;;;5077564;28;20040;-77
2023/10/10 16:18:35;;;;;;;12.80;5.88;;;19.10;99.90;;;;;;5082324;28;20039;-77
2023/10/10 16:21:21;;;;;;;10.77;5.15;;;19.10;99.90;;;;;;5070541;28;20052;-77
2023/10/10 16:24:10;;;;;;;14.48;6.28;;;19.10;99.90;;;;;;5077497;28;20035;-77
2023/10/10 16:26:59;;;;;;;12.75;5.50;;;19.00;99.90;;;;;;5071226;28;20097;-77
2023/10/10 16:29:45;;;;;;;11.27;5.88;;;19.00;99.90;;;;;;5076390;28;20139;-78
2023/10/10 16:32:35;;;;;;;14.15;5.63;;;19.00;99.90;;;;;;5093050;28;20367;-77
2023/10/10 16:35:21;;;;;;;15.23;5.60;;;18.90;99.90;;;;;;5087135;28;20048;-78
2023/10/10 16:38:07;;;;;;;11.60;5.50;;;18.90;99.90;;;;;;5089793;28;20096;-78
2023/10/10 16:40:53;;;;;;;11.73;5.65;;;18.90;99.90;;;;;;5059024;28;20053;-77
2023/10/10 16:43:39;;;;;;;10.48;5.65;;;18.90;99.90;;;;;;5091881;28;20044;-77
2023/10/10 16:46:30;;;;;;;11.73;5.95;;;18.90;99.90;;;;;;5074288;28;20078;-77
2023/10/10 16:49:19;;;;;;;12.18;6.25;;;18.80;99.90;;;;;;5084731;28;20368;-77
2023/10/10 16:52:05;;;;;;;13.95;7.22;;;18.80;99.90;;;;;;5093227;28;20163;-77
2023/10/10 16:54:53;;;;;;;13.85;6.70;;;18.70;99.90;;;;;;5101969;28;20036;-77
2023/10/10 16:57:39;;;;;;;15.70;5.77;;;18.80;99.90;;;;;;5061542;28;20032;-77
2023/10/10 17:00:25;;;;;;;10.32;5.72;;;18.80;99.90;;;;;;5057251;28;20781;-77
2023/10/10 17:03:11;;;;;;;11.52;5.65;;;18.70;99.90;;;;;;5075539;28;20044;-77
2023/10/10 17:06:01;;;;;;;14.40;7.78;;;18.70;99.90;;;;;;5078127;28;20460;-78
2023/10/10 17:08:47;;;;;;;13.43;6.57;;;18.60;99.90;;;;;;5093839;28;20047;-76
2023/10/10 17:11:33;;;;;;;13.45;7.13;;;18.60;99.90;;;;;;5106101;28;20069;-76
2023/10/10 17:14:19;;;;;;;15.23;6.75;;;18.60;99.90;;;;;;5057912;28;20475;-77